createdAt,value
2018-12-24T10:47:55.101Z,-21174.91
2018-12-24T10:50:23.476Z,-21170.36
2018-12-24T10:52:51.862Z,-21166.81
2018-12-24T10:55:20.280Z,-21184.28
2018-12-24T10:57:48.638Z,-21163.54
2018-12-24T11:00:17.092Z,-21175.47
2018-12-24T11:02:45.470Z,-21182.72
2018-12-24T11:05:13.858Z,-21186.98
2018-12-24T11:07:42.270Z,-21178.74
2018-12-24T13:55:58.108Z,-21181.87
2018-12-24T13:58:26.507Z,-21172.63
2018-12-24T14:00:54.925Z,-21174.34
2018-12-24T15:17:38.900Z,-21135.81
2018-12-24T15:26:58.267Z,-21146.20
2018-12-24T15:29:26.664Z,-21158.85
2018-12-24T15:31:55.062Z,-21144.07
2018-12-24T15:34:23.443Z,-21139.52
2018-12-24T15:36:51.802Z,-21142.36
2018-12-24T15:39:20.188Z,-21132.97
2018-12-24T15:41:48.569Z,-21138.52
2018-12-24T15:44:16.931Z,-21139.80
2018-12-24T15:46:45.291Z,-21179.59
2018-12-24T15:49:13.689Z,-21165.53
2018-12-24T15:51:42.059Z,-21135.25
2018-12-24T15:54:10.445Z,-21129.55
2018-12-24T15:56:38.816Z,-21187.12
2018-12-24T15:59:07.169Z,-21116.89
2018-12-24T16:01:35.562Z,-21112.34
2018-12-24T16:04:03.960Z,-21114.04
2018-12-24T16:06:32.326Z,-21124.15
2018-12-24T16:09:00.679Z,-21111.76
2018-12-24T16:11:29.051Z,-21124.57
2018-12-24T16:13:57.415Z,-21119.74
2018-12-24T16:16:25.792Z,-21117.74
2018-12-24T16:18:54.203Z,-21106.36
2018-12-24T16:21:22.577Z,-21121.87
2018-12-24T16:23:50.957Z,-21131.41
2018-12-24T16:26:19.332Z,-21121.87
2018-12-24T16:28:47.692Z,-21117.46
2018-12-24T16:31:16.089Z,-21126.71
2018-12-24T16:33:44.476Z,-21124.00
2018-12-24T16:36:13.839Z,-21120.45
2018-12-24T16:57:30.456Z,-21097.10
2018-12-24T16:59:58.909Z,-21110.05
2018-12-24T17:02:27.319Z,-21096.96
2018-12-24T17:04:55.709Z,-21101.37
2018-12-24T17:07:24.088Z,-21102.93
2018-12-24T17:09:52.453Z,-21110.34
2018-12-24T17:12:20.864Z,-21105.79
2018-12-24T17:14:49.263Z,-21097.38
2018-12-24T17:17:17.636Z,-21102.93
2018-12-24T17:19:46.001Z,-21099.23
2018-12-24T17:22:14.358Z,-21104.08
2018-12-24T17:24:42.740Z,-21096.67
2018-12-24T17:27:11.120Z,-21097.81
2018-12-24T17:29:39.498Z,-21094.25
2018-12-24T17:32:07.872Z,-21088.83
2018-12-24T17:34:36.246Z,-21091.83
2018-12-24T17:37:04.617Z,-21092.39
2018-12-24T17:39:33.004Z,-21131.98
2018-12-24T17:42:01.365Z,-21088.41
2018-12-24T17:44:29.744Z,-21081.84
2018-12-24T17:46:58.124Z,-21078.14
2018-12-24T17:49:26.538Z,-21072.00
2018-12-24T17:51:54.950Z,-21082.27
2018-12-24T17:54:23.332Z,-21097.10
2018-12-24T17:56:51.715Z,-21103.79
2018-12-24T17:59:20.071Z,-21109.06
2018-12-24T18:01:48.613Z,-21094.68
2018-12-24T18:04:17.002Z,-21107.49
2018-12-24T18:06:45.388Z,-21112.48
2018-12-24T18:09:13.752Z,-21103.08
2018-12-24T18:11:42.117Z,-21106.36
2018-12-24T18:14:10.510Z,-21106.21
2018-12-24T18:16:38.881Z,-21101.37
2018-12-24T18:19:07.260Z,-21105.22
2018-12-24T18:21:35.638Z,-21106.07
2018-12-24T18:24:04.011Z,-21110.91
2018-12-24T18:26:32.403Z,-21100.52
2018-12-24T18:29:00.784Z,-21100.37
2018-12-24T18:31:29.146Z,-21106.36
2018-12-24T18:33:57.531Z,-21091.83
2018-12-24T18:36:25.985Z,-21093.68
2018-12-24T18:38:54.354Z,-21098.80
2018-12-24T18:41:22.716Z,-21090.83
2018-12-24T18:43:51.072Z,-21084.70
2018-12-24T18:46:19.459Z,-21097.38
2018-12-24T18:48:47.827Z,-21086.41
2018-12-24T18:51:16.238Z,-21087.13
2018-12-24T18:53:44.605Z,-21098.80
2018-12-24T18:56:12.977Z,-21101.52
2018-12-24T18:58:41.362Z,-21115.04
2018-12-24T19:01:09.748Z,-21101.94
2018-12-24T19:03:38.168Z,-21089.26
2018-12-24T19:06:06.546Z,-21085.70
2018-12-24T19:08:34.911Z,-21094.25
2018-12-24T19:11:03.294Z,-21098.95
2018-12-24T19:13:31.681Z,-21098.23
2018-12-24T19:16:00.076Z,-21092.96
2018-12-24T19:18:28.458Z,-21095.81
2018-12-24T19:20:56.872Z,-21087.13
2018-12-24T19:23:25.230Z,-21090.11
2018-12-24T19:25:53.623Z,-21079.70
2018-12-24T19:28:22.002Z,-21084.70
2018-12-24T19:30:50.361Z,-21085.70
2018-12-24T19:33:18.743Z,-21086.27
2018-12-24T19:35:47.111Z,-21077.43
2018-12-24T19:38:15.476Z,-21080.70
2018-12-24T19:40:43.858Z,-21085.13
2018-12-24T19:43:12.239Z,-21084.55
2018-12-24T19:45:40.614Z,-21084.70
2018-12-24T19:48:09.013Z,-21083.27
2018-12-24T19:50:37.393Z,-21077.85
2018-12-24T19:53:05.770Z,-21089.54
2018-12-24T19:55:34.154Z,-21072.15
2018-12-24T19:58:02.517Z,-21079.28
2018-12-24T20:00:30.924Z,-21080.84
2018-12-24T20:02:59.312Z,-21078.14
2018-12-24T20:05:27.696Z,-21073.14
2018-12-24T20:07:56.066Z,-21069.87
2018-12-24T20:10:24.440Z,-21077.57
2018-12-24T20:12:52.874Z,-21073.57
2018-12-24T20:15:21.235Z,-21080.13
2018-12-24T20:17:49.599Z,-21083.70
2018-12-24T20:20:18.006Z,-21076.14
2018-12-24T20:22:46.428Z,-21110.05
2018-12-24T20:25:14.830Z,-21118.88
2018-12-24T20:27:43.195Z,-21085.27
2018-12-24T20:30:11.602Z,-21092.96
2018-12-24T20:32:40.006Z,-21130.84
2018-12-24T20:35:08.378Z,-21101.37
2018-12-24T20:37:36.775Z,-21089.12
2018-12-24T20:40:05.212Z,-21085.70
2018-12-24T20:42:33.598Z,-21108.35
2018-12-24T20:45:02.047Z,-21086.98
2018-12-24T20:47:30.421Z,-21137.67
2018-12-24T20:49:58.790Z,-21107.49
2018-12-24T20:52:27.176Z,-21082.98
2018-12-24T20:54:55.573Z,-21090.40
2018-12-24T20:57:23.957Z,-21084.84
2018-12-24T20:59:52.377Z,-21076.86
2018-12-24T21:02:20.807Z,-21064.73
2018-12-24T21:04:49.264Z,-21092.68
2018-12-24T21:07:17.641Z,-21077.57
2018-12-24T21:09:46.062Z,-21074.57
2018-12-24T21:12:14.414Z,-21072.72
2018-12-24T21:14:42.967Z,-21069.01
2018-12-24T21:17:11.361Z,-21074.57
2018-12-24T21:19:39.717Z,-21093.11
2018-12-24T21:22:08.168Z,-21079.70
2018-12-24T21:24:36.486Z,-21072.43
2018-12-24T21:27:04.874Z,-21077.43
2018-12-24T21:29:33.247Z,-21072.86
2018-12-24T21:32:01.624Z,-21072.00
2018-12-24T21:34:30.014Z,-21069.87
2018-12-24T21:36:58.473Z,-21050.32
2018-12-24T21:39:26.877Z,-21055.03
2018-12-24T21:41:55.321Z,-21077.85
2018-12-24T21:44:23.710Z,-21062.73
2018-12-24T21:46:52.075Z,-21066.02
2018-12-24T21:49:20.547Z,-21074.14
2018-12-24T21:51:48.944Z,-21072.57
2018-12-24T21:54:17.332Z,-21068.44
2018-12-24T21:56:45.717Z,-21071.86
2018-12-24T21:59:14.139Z,-21068.01
2018-12-24T22:01:42.541Z,-21060.74
2018-12-24T22:04:10.921Z,-21055.60
2018-12-24T22:06:39.279Z,-21063.02
2018-12-24T22:09:07.726Z,-21065.30
2018-12-24T22:11:36.249Z,-21062.59
2018-12-24T22:14:04.596Z,-21060.17
2018-12-24T22:16:33.017Z,-21066.87
2018-12-24T22:19:01.370Z,-21066.87
2018-12-24T22:21:29.739Z,-21055.17
2018-12-24T22:23:58.158Z,-21070.58
2018-12-24T22:26:26.566Z,-21063.59
2018-12-24T22:28:54.934Z,-21052.32
2018-12-24T22:31:23.285Z,-21051.46
2018-12-24T22:33:51.667Z,-21062.59
2018-12-24T22:36:20.061Z,-21027.05
2018-12-24T22:38:48.463Z,-21033.05
2018-12-24T22:41:16.871Z,-21046.61
2018-12-24T22:43:45.263Z,-21039.33
2018-12-24T22:46:13.660Z,-21074.14
2018-12-24T22:48:42.075Z,-21091.83
2018-12-24T22:51:10.470Z,-21042.47
2018-12-24T22:53:38.863Z,-21042.04
2018-12-24T22:56:07.258Z,-21052.04
2018-12-24T22:58:35.662Z,-21043.47
2018-12-24T23:01:04.046Z,-21038.05
2018-12-24T23:03:32.420Z,-21044.75
2018-12-24T23:06:00.776Z,-21048.75
2018-12-24T23:08:29.150Z,-21045.47
2018-12-24T23:10:57.524Z,-21036.91
2018-12-24T23:13:25.922Z,-21020.77
2018-12-24T23:15:54.276Z,-21029.34
2018-12-24T23:18:22.634Z,-21034.48
2018-12-24T23:20:51.015Z,-21028.76
2018-12-24T23:23:19.368Z,-21036.05
2018-12-24T23:25:47.750Z,-21035.62
2018-12-24T23:28:16.131Z,-21036.33
2018-12-24T23:30:44.528Z,-21034.05
2018-12-24T23:33:12.895Z,-21036.76
2018-12-24T23:35:41.273Z,-21032.77
2018-12-24T23:38:09.628Z,-21033.19
2018-12-24T23:40:38.014Z,-21042.90
2018-12-24T23:43:06.404Z,-21036.91
2018-12-24T23:45:34.774Z,-21039.47
2018-12-24T23:48:03.192Z,-21030.91
2018-12-24T23:50:31.570Z,-21037.48
2018-12-24T23:52:59.978Z,-21062.59
